sensor_id;sensor_type;location;lat;lon;timestamp;pressure;altitude;pressure_sealevel;temperature;humidity
61537;BME280;48695;53.480;-6.300;2022-09-12T00:00:19;100339.03;;;19.99;76.75
61537;BME280;48695;53.480;-6.300;2022-09-12T00:02:50;100343.72;;;20.08;74.94
61537;BME280;48695;53.480;-6.300;2022-09-12T00:05:15;100350.06;;;20.05;76.41
61537;BME280;48695;53.480;-6.300;2022-09-12T00:07:41;100347.53;;;20.04;76.52
61537;BME280;48695;53.480;-6.300;2022-09-12T00:10:06;100351.16;;;20.03;76.89
61537;BME280;48695;53.480;-6.300;2022-09-12T00:12:33;100357.38;;;20.02;76.75
61537;BME280;48695;53.480;-6.300;2022-09-12T00:14:58;100341.69;;;19.99;76.85
61537;BME280;48695;53.480;-6.300;2022-09-12T00:17:24;100351.53;;;19.96;77.44
61537;BME280;48695;53.480;-6.300;2022-09-12T00:19:49;100344.75;;;19.92;77.77
61537;BME280;48695;53.480;-6.300;2022-09-12T00:22:15;100349.19;;;19.92;78.03
61537;BME280;48695;53.480;-6.300;2022-09-12T00:24:40;100351.94;;;19.90;77.61
61537;BME280;48695;53.480;-6.300;2022-09-12T00:27:05;100345.81;;;19.90;77.67
61537;BME280;48695;53.480;-6.300;2022-09-12T00:29:31;100343.25;;;19.88;77.82
61537;BME280;48695;53.480;-6.300;2022-09-12T00:31:56;100346.88;;;19.87;77.42
61537;BME280;48695;53.480;-6.300;2022-09-12T00:34:22;100342.50;;;19.86;77.78
61537;BME280;48695;53.480;-6.300;2022-09-12T00:36:47;100351.41;;;19.85;77.50
61537;BME280;48695;53.480;-6.300;2022-09-12T00:39:16;100346.00;;;19.87;78.09
61537;BME280;48695;53.480;-6.300;2022-09-12T00:41:42;100344.59;;;19.81;78.39
61537;BME280;48695;53.480;-6.300;2022-09-12T00:46:41;100349.19;;;19.79;78.57
61537;BME280;48695;53.480;-6.300;2022-09-12T00:49:13;100353.41;;;19.82;77.77
61537;BME280;48695;53.480;-6.300;2022-09-12T00:51:42;100345.56;;;19.80;77.77
61537;BME280;48695;53.480;-6.300;2022-09-12T00:54:11;100340.50;;;19.77;77.94
61537;BME280;48695;53.480;-6.300;2022-09-12T00:56:41;100345.56;;;19.80;77.94
61537;BME280;48695;53.480;-6.300;2022-09-12T00:59:16;100328.81;;;19.80;77.80
61537;BME280;48695;53.480;-6.300;2022-09-12T01:01:43;100341.13;;;19.81;78.08
61537;BME280;48695;53.480;-6.300;2022-09-12T01:04:13;100333.28;;;19.79;78.08
61537;BME280;48695;53.480;-6.300;2022-09-12T01:06:42;100339.22;;;19.83;78.56
61537;BME280;48695;53.480;-6.300;2022-09-12T01:09:09;100334.00;;;19.81;78.14
61537;BME280;48695;53.480;-6.300;2022-09-12T01:11:37;100334.78;;;19.83;77.68
61537;BME280;48695;53.480;-6.300;2022-09-12T01:14:05;100333.09;;;19.82;78.20
61537;BME280;48695;53.480;-6.300;2022-09-12T01:16:31;100333.09;;;19.82;77.75
61537;BME280;48695;53.480;-6.300;2022-09-12T01:22:17;100319.72;;;19.84;77.35
61537;BME280;48695;53.480;-6.300;2022-09-12T01:25:13;100327.38;;;19.88;76.76
61537;BME280;48695;53.480;-6.300;2022-09-12T01:38:51;100315.47;;;19.81;77.10
61537;BME280;48695;53.480;-6.300;2022-09-12T01:44:30;100315.69;;;19.78;77.10
61537;BME280;48695;53.480;-6.300;2022-09-12T01:47:11;100304.84;;;19.68;77.04
61537;BME280;48695;53.480;-6.300;2022-09-12T01:49:42;100313.66;;;19.69;77.52
61537;BME280;48695;53.480;-6.300;2022-09-12T01:52:13;100316.50;;;19.66;77.75
61537;BME280;48695;53.480;-6.300;2022-09-12T01:55:10;100316.50;;;19.66;76.84
61537;BME280;48695;53.480;-6.300;2022-09-12T01:58:04;100312.38;;;19.62;77.36
61537;BME280;48695;53.480;-6.300;2022-09-12T02:00:34;100311.78;;;19.57;77.56
61537;BME280;48695;53.480;-6.300;2022-09-12T02:03:07;100318.03;;;19.56;77.71
61537;BME280;48695;53.480;-6.300;2022-09-12T02:05:42;100313.91;;;19.52;78.53
61537;BME280;48695;53.480;-6.300;2022-09-12T02:08:12;100302.00;;;19.44;78.11
61537;BME280;48695;53.480;-6.300;2022-09-12T02:10:57;100312.94;;;19.53;77.58
61537;BME280;48695;53.480;-6.300;2022-09-12T02:16:17;100313.03;;;19.51;77.87
61537;BME280;48695;53.480;-6.300;2022-09-12T02:18:49;100313.13;;;19.50;78.17
61537;BME280;48695;53.480;-6.300;2022-09-12T02:21:18;100316.75;;;19.49;77.88
61537;BME280;48695;53.480;-6.300;2022-09-12T02:23:47;100318.44;;;19.50;78.43
61537;BME280;48695;53.480;-6.300;2022-09-12T02:26:21;100321.06;;;19.50;78.50
61537;BME280;48695;53.480;-6.300;2022-09-12T02:28:47;100313.34;;;19.47;78.66
61537;BME280;48695;53.480;-6.300;2022-09-12T02:31:23;100319.19;;;19.52;78.55
61537;BME280;48695;53.480;-6.300;2022-09-12T02:36:48;100318.97;;;19.55;77.82
61537;BME280;48695;53.480;-6.300;2022-09-12T02:39:16;100320.13;;;19.51;78.38
61537;BME280;48695;53.480;-6.300;2022-09-12T02:41:57;100318.13;;;19.54;77.62
61537;BME280;48695;53.480;-6.300;2022-09-12T02:44:24;100320.88;;;19.53;78.39
61537;BME280;48695;53.480;-6.300;2022-09-12T02:46:55;100318.97;;;19.55;78.61
61537;BME280;48695;53.480;-6.300;2022-09-12T02:49:22;100307.09;;;19.48;78.25
61537;BME280;48695;53.480;-6.300;2022-09-12T02:51:48;100319.94;;;19.54;78.49
61537;BME280;48695;53.480;-6.300;2022-09-12T02:54:14;100325.13;;;19.55;78.41
61537;BME280;48695;53.480;-6.300;2022-09-12T02:56:42;100327.69;;;19.57;78.70
61537;BME280;48695;53.480;-6.300;2022-09-12T02:59:09;100322.84;;;19.63;77.08
61537;BME280;48695;53.480;-6.300;2022-09-12T03:07:13;100306.38;;;19.58;78.00
61537;BME280;48695;53.480;-6.300;2022-09-12T03:10:04;100316.06;;;19.59;78.15
61537;BME280;48695;53.480;-6.300;2022-09-12T03:18:48;100319.63;;;19.58;76.77
61537;BME280;48695;53.480;-6.300;2022-09-12T03:21:24;100325.03;;;19.57;77.82
61537;BME280;48695;53.480;-6.300;2022-09-12T03:26:36;100334.03;;;19.54;78.67
61537;BME280;48695;53.480;-6.300;2022-09-12T03:29:05;100338.47;;;19.54;78.81
61537;BME280;48695;53.480;-6.300;2022-09-12T03:31:32;100337.81;;;19.50;78.30
61537;BME280;48695;53.480;-6.300;2022-09-12T03:33:59;100338.66;;;19.51;78.32
61537;BME280;48695;53.480;-6.300;2022-09-12T03:36:27;100343.22;;;19.49;78.69
61537;BME280;48695;53.480;-6.300;2022-09-12T03:38:52;100332.25;;;19.40;78.82
61537;BME280;48695;53.480;-6.300;2022-09-12T03:41:18;100336.41;;;19.44;78.93
61537;BME280;48695;53.480;-6.300;2022-09-12T03:43:44;100327.28;;;19.36;79.13
61537;BME280;48695;53.480;-6.300;2022-09-12T03:46:09;100344.59;;;19.41;79.23
61537;BME280;48695;53.480;-6.300;2022-09-12T03:48:35;100341.16;;;19.39;78.82
61537;BME280;48695;53.480;-6.300;2022-09-12T03:51:02;100338.75;;;19.36;79.61
61537;BME280;48695;53.480;-6.300;2022-09-12T03:53:28;100345.81;;;19.36;79.31
61537;BME280;48695;53.480;-6.300;2022-09-12T03:55:54;100341.38;;;19.36;79.29
61537;BME280;48695;53.480;-6.300;2022-09-12T03:58:19;100348.38;;;19.37;79.38
61537;BME280;48695;53.480;-6.300;2022-09-12T04:00:45;100355.38;;;19.38;79.26
61537;BME280;48695;53.480;-6.300;2022-09-12T04:03:10;100356.31;;;19.37;78.64
61537;BME280;48695;53.480;-6.300;2022-09-12T04:05:36;100355.47;;;19.37;78.84
61537;BME280;48695;53.480;-6.300;2022-09-12T04:08:01;100352.06;;;19.35;79.18
61537;BME280;48695;53.480;-6.300;2022-09-12T04:10:27;100348.56;;;19.34;79.15
61537;BME280;48695;53.480;-6.300;2022-09-12T04:12:52;100353.00;;;19.34;79.07
61537;BME280;48695;53.480;-6.300;2022-09-12T04:15:17;100349.50;;;19.33;79.18
61537;BME280;48695;53.480;-6.300;2022-09-12T04:17:43;100351.31;;;19.33;79.53
61537;BME280;48695;53.480;-6.300;2022-09-12T04:20:09;100331.78;;;19.21;79.35
61537;BME280;48695;53.480;-6.300;2022-09-12T04:22:34;100348.78;;;19.31;78.68
61537;BME280;48695;53.480;-6.300;2022-09-12T04:25:00;100348.97;;;19.28;78.63
61537;BME280;48695;53.480;-6.300;2022-09-12T04:27:26;100347.28;;;19.27;79.38
61537;BME280;48695;53.480;-6.300;2022-09-12T04:29:51;100353.53;;;19.26;79.51
61537;BME280;48695;53.480;-6.300;2022-09-12T04:32:19;100352.75;;;19.24;79.19
61537;BME280;48695;53.480;-6.300;2022-09-12T04:34:44;100356.34;;;19.23;79.22
61537;BME280;48695;53.480;-6.300;2022-09-12T04:37:11;100356.34;;;19.23;79.46
61537;BME280;48695;53.480;-6.300;2022-09-12T04:39:36;100350.22;;;19.23;79.24
61537;BME280;48695;53.480;-6.300;2022-09-12T04:42:02;100351.25;;;19.20;79.67
61537;BME280;48695;53.480;-6.300;2022-09-12T04:44:28;100358.34;;;19.19;79.36
61537;BME280;48695;53.480;-6.300;2022-09-12T04:46:54;100352.31;;;19.17;79.38
61537;BME280;48695;53.480;-6.300;2022-09-12T04:49:19;100358.44;;;19.18;78.89
61537;BME280;48695;53.480;-6.300;2022-09-12T04:51:45;100337.84;;;19.09;79.09
61537;BME280;48695;53.480;-6.300;2022-09-12T04:54:16;100356.75;;;19.17;79.48
61537;BME280;48695;53.480;-6.300;2022-09-12T04:56:44;100349.94;;;19.13;79.47
61537;BME280;48695;53.480;-6.300;2022-09-12T04:59:12;100351.81;;;19.11;79.71
61537;BME280;48695;53.480;-6.300;2022-09-12T05:01:38;100345.22;;;19.04;80.05
61537;BME280;48695;53.480;-6.300;2022-09-12T05:04:04;100329.31;;;18.91;79.43
61537;BME280;48695;53.480;-6.300;2022-09-12T05:06:34;100342.78;;;19.01;79.95
61537;BME280;48695;53.480;-6.300;2022-09-12T05:09:01;100345.81;;;18.95;79.88
61537;BME280;48695;53.480;-6.300;2022-09-12T05:11:30;100352.06;;;18.93;80.02
61537;BME280;48695;53.480;-6.300;2022-09-12T05:13:56;100363.78;;;18.89;80.15
61537;BME280;48695;53.480;-6.300;2022-09-12T05:16:22;100354.53;;;18.82;79.83
61537;BME280;48695;53.480;-6.300;2022-09-12T05:18:48;100358.88;;;18.83;79.95
61537;BME280;48695;53.480;-6.300;2022-09-12T05:21:17;100360.78;;;18.81;80.09
61537;BME280;48695;53.480;-6.300;2022-09-12T05:23:43;100352.28;;;18.76;80.35
61537;BME280;48695;53.480;-6.300;2022-09-12T05:26:14;100360.22;;;18.76;80.04
61537;BME280;48695;53.480;-6.300;2022-09-12T05:28:39;100339.00;;;18.62;80.35
61537;BME280;48695;53.480;-6.300;2022-09-12T05:33:39;100360.75;;;18.67;80.29
61537;BME280;48695;53.480;-6.300;2022-09-12T05:36:05;100365.13;;;18.68;78.83
61537;BME280;48695;53.480;-6.300;2022-09-12T05:38:33;100365.47;;;18.62;80.04
61537;BME280;48695;53.480;-6.300;2022-09-12T05:41:04;100365.63;;;18.59;79.68
61537;BME280;48695;53.480;-6.300;2022-09-12T05:43:31;100368.75;;;18.51;80.40
61537;BME280;48695;53.480;-6.300;2022-09-12T05:46:01;100376.78;;;18.50;80.43
61537;BME280;48695;53.480;-6.300;2022-09-12T05:48:27;100374.50;;;18.44;80.54
61537;BME280;48695;53.480;-6.300;2022-09-12T05:51:02;100375.34;;;18.44;80.28
61537;BME280;48695;53.480;-6.300;2022-09-12T05:53:31;100334.47;;;18.21;81.02
61537;BME280;48695;53.480;-6.300;2022-09-12T05:56:09;100369.50;;;18.39;80.43
61537;BME280;48695;53.480;-6.300;2022-09-12T05:58:37;100377.69;;;18.34;80.29
61537;BME280;48695;53.480;-6.300;2022-09-12T06:03:32;100384.03;;;18.32;80.66
61537;BME280;48695;53.480;-6.300;2022-09-12T06:06:01;100391.00;;;18.33;80.14
61537;BME280;48695;53.480;-6.300;2022-09-12T06:08:26;100390.34;;;18.29;80.74
61537;BME280;48695;53.480;-6.300;2022-09-12T06:11:00;100391.00;;;18.33;80.87
61537;BME280;48695;53.480;-6.300;2022-09-12T06:13:27;100399.03;;;18.31;81.63
61537;BME280;48695;53.480;-6.300;2022-09-12T06:15:52;100377.41;;;18.25;81.44
61537;BME280;48695;53.480;-6.300;2022-09-12T06:18:18;100393.56;;;18.34;81.60
61537;BME280;48695;53.480;-6.300;2022-09-12T06:20:45;100402.06;;;18.39;81.63
61537;BME280;48695;53.480;-6.300;2022-09-12T06:23:10;100387.34;;;18.35;81.47
61537;BME280;48695;53.480;-6.300;2022-09-12T06:25:36;100402.63;;;18.45;81.26
61537;BME280;48695;53.480;-6.300;2022-09-12T06:28:02;100405.09;;;18.48;81.42
61537;BME280;48695;53.480;-6.300;2022-09-12T06:30:28;100402.38;;;18.49;80.83
61537;BME280;48695;53.480;-6.300;2022-09-12T06:32:54;100409.28;;;18.52;80.90
61537;BME280;48695;53.480;-6.300;2022-09-12T06:35:21;100409.06;;;18.55;81.03
61537;BME280;48695;53.480;-6.300;2022-09-12T06:37:47;100409.84;;;18.57;80.91
61537;BME280;48695;53.480;-6.300;2022-09-12T06:40:13;100407.94;;;18.59;80.91
61537;BME280;48695;53.480;-6.300;2022-09-12T06:42:38;100409.56;;;18.61;81.02
61537;BME280;48695;53.480;-6.300;2022-09-12T06:45:04;100404.19;;;18.63;80.91
61537;BME280;48695;53.480;-6.300;2022-09-12T06:47:29;100412.72;;;18.68;80.97
61537;BME280;48695;53.480;-6.300;2022-09-12T06:49:54;100417.84;;;18.71;80.64
61537;BME280;48695;53.480;-6.300;2022-09-12T06:52:20;100422.06;;;18.74;80.64
61537;BME280;48695;53.480;-6.300;2022-09-12T06:54:45;100413.19;;;18.75;80.85
61537;BME280;48695;53.480;-6.300;2022-09-12T06:57:11;100419.31;;;18.75;80.36
61537;BME280;48695;53.480;-6.300;2022-09-12T06:59:37;100421.06;;;18.76;80.94
61537;BME280;48695;53.480;-6.300;2022-09-12T07:02:02;100423.41;;;18.81;80.96
61537;BME280;48695;53.480;-6.300;2022-09-12T07:04:28;100428.59;;;18.82;80.92
61537;BME280;48695;53.480;-6.300;2022-09-12T07:06:53;100420.47;;;18.85;80.90
61537;BME280;48695;53.480;-6.300;2022-09-12T07:09:19;100420.47;;;18.85;80.77
61537;BME280;48695;53.480;-6.300;2022-09-12T07:11:45;100415.75;;;18.90;80.73
61537;BME280;48695;53.480;-6.300;2022-09-12T07:14:12;100421.69;;;18.94;80.20
61537;BME280;48695;53.480;-6.300;2022-09-12T07:16:38;100432.19;;;18.96;80.54
61537;BME280;48695;53.480;-6.300;2022-09-12T07:19:06;100443.25;;;19.02;80.62
61537;BME280;48695;53.480;-6.300;2022-09-12T07:21:31;100436.84;;;19.06;80.33
61537;BME280;48695;53.480;-6.300;2022-09-12T07:23:57;100437.47;;;19.10;80.17
61537;BME280;48695;53.480;-6.300;2022-09-12T07:26:24;100433.69;;;19.14;80.17
61537;BME280;48695;53.480;-6.300;2022-09-12T07:28:50;100417.06;;;19.12;80.19
61537;BME280;48695;53.480;-6.300;2022-09-12T07:31:21;100426.88;;;19.24;79.89
61537;BME280;48695;53.480;-6.300;2022-09-12T07:33:47;100428.28;;;19.30;80.16
61537;BME280;48695;53.480;-6.300;2022-09-12T07:36:16;100426.31;;;19.33;79.55
61537;BME280;48695;53.480;-6.300;2022-09-12T07:38:41;100435.91;;;19.49;79.31
61537;BME280;48695;53.480;-6.300;2022-09-12T07:41:34;100436.47;;;19.54;79.05
61537;BME280;48695;53.480;-6.300;2022-09-12T07:44:00;100448.19;;;19.50;78.82
61537;BME280;48695;53.480;-6.300;2022-09-12T07:46:27;100444.41;;;19.54;79.04
61537;BME280;48695;53.480;-6.300;2022-09-12T07:48:55;100439.84;;;19.56;78.86
61537;BME280;48695;53.480;-6.300;2022-09-12T07:51:22;100444.22;;;19.57;78.66
61537;BME280;48695;53.480;-6.300;2022-09-12T07:53:49;100444.03;;;19.60;79.07
61537;BME280;48695;53.480;-6.300;2022-09-12T07:56:15;100444.72;;;19.63;78.96
61537;BME280;48695;53.480;-6.300;2022-09-12T07:58:42;100447.91;;;19.68;78.95
61537;BME280;48695;53.480;-6.300;2022-09-12T08:03:41;100460.47;;;19.79;78.86
61537;BME280;48695;53.480;-6.300;2022-09-12T08:06:09;100454.75;;;19.85;78.68
61537;BME280;48695;53.480;-6.300;2022-09-12T08:08:36;100459.88;;;19.88;78.39
61537;BME280;48695;53.480;-6.300;2022-09-12T08:11:04;100461.16;;;19.95;78.47
61537;BME280;48695;53.480;-6.300;2022-09-12T08:13:31;100453.00;;;19.99;78.42
61537;BME280;48695;53.480;-6.300;2022-09-12T08:16:01;100460.38;;;20.08;78.86
61537;BME280;48695;53.480;-6.300;2022-09-12T08:18:28;100451.34;;;20.10;78.78
61537;BME280;48695;53.480;-6.300;2022-09-12T08:20:58;100462.94;;;20.22;78.09
61537;BME280;48695;53.480;-6.300;2022-09-12T08:23:24;100467.84;;;20.28;78.22
61537;BME280;48695;53.480;-6.300;2022-09-12T08:25:51;100440.69;;;20.25;77.87
61537;BME280;48695;53.480;-6.300;2022-09-12T08:28:19;100453.00;;;20.38;77.16
61537;BME280;48695;53.480;-6.300;2022-09-12T08:30:44;100455.13;;;20.46;77.04
61537;BME280;48695;53.480;-6.300;2022-09-12T08:33:09;100464.44;;;20.53;77.22
61537;BME280;48695;53.480;-6.300;2022-09-12T08:35:35;100459.53;;;20.60;77.35
61537;BME280;48695;53.480;-6.300;2022-09-12T08:38:00;100459.84;;;20.68;77.24
61537;BME280;48695;53.480;-6.300;2022-09-12T08:40:26;100457.72;;;20.73;76.34
61537;BME280;48695;53.480;-6.300;2022-09-12T08:44:01;100454.97;;;20.87;77.15
61537;BME280;48695;53.480;-6.300;2022-09-12T08:49:04;100460.50;;;20.84;76.07
61537;BME280;48695;53.480;-6.300;2022-09-12T08:51:34;100466.97;;;20.93;76.14
61537;BME280;48695;53.480;-6.300;2022-09-12T08:54:01;100468.56;;;20.95;76.23
61537;BME280;48695;53.480;-6.300;2022-09-12T08:56:31;100470.06;;;20.99;76.26
61537;BME280;48695;53.480;-6.300;2022-09-12T08:59:00;100470.50;;;20.93;75.70
61537;BME280;48695;53.480;-6.300;2022-09-12T09:01:36;100466.00;;;21.07;76.67
61537;BME280;48695;53.480;-6.300;2022-09-12T09:04:28;100471.56;;;21.04;75.87
61537;BME280;48695;53.480;-6.300;2022-09-12T09:21:18;100490.31;;;21.26;76.03
61537;BME280;48695;53.480;-6.300;2022-09-12T09:23:49;100466.53;;;21.12;75.51
61537;BME280;48695;53.480;-6.300;2022-09-12T09:26:32;100485.72;;;21.28;76.35
61537;BME280;48695;53.480;-6.300;2022-09-12T09:29:13;100484.81;;;21.29;76.05
61537;BME280;48695;53.480;-6.300;2022-09-12T09:31:39;100501.66;;;21.28;76.02
61537;BME280;48695;53.480;-6.300;2022-09-12T09:34:17;100500.09;;;21.38;76.24
61537;BME280;48695;53.480;-6.300;2022-09-12T09:36:48;100499.16;;;21.39;75.66
61537;BME280;48695;53.480;-6.300;2022-09-12T09:45:10;100503.78;;;21.48;76.04
61537;BME280;48695;53.480;-6.300;2022-09-12T09:47:36;100490.22;;;21.40;75.99
61537;BME280;48695;53.480;-6.300;2022-09-12T09:50:01;100504.94;;;21.57;75.27
61537;BME280;48695;53.480;-6.300;2022-09-12T09:52:28;100517.34;;;21.69;75.26
61537;BME280;48695;53.480;-6.300;2022-09-12T09:54:58;100507.78;;;21.80;75.74
61537;BME280;48695;53.480;-6.300;2022-09-12T10:00:11;100498.94;;;22.03;74.44
61537;BME280;48695;53.480;-6.300;2022-09-12T10:03:27;100503.53;;;22.25;75.19
61537;BME280;48695;53.480;-6.300;2022-09-12T10:06:01;100473.78;;;22.20;74.82
61537;BME280;48695;53.480;-6.300;2022-09-12T10:08:34;100502.69;;;22.48;74.30
61537;BME280;48695;53.480;-6.300;2022-09-12T10:16:23;100500.16;;;23.16;74.93
61537;BME280;48695;53.480;-6.300;2022-09-12T10:18:51;100506.84;;;23.33;72.46
61537;BME280;48695;53.480;-6.300;2022-09-12T10:23:43;100509.03;;;23.72;71.39
61537;BME280;48695;53.480;-6.300;2022-09-12T10:26:12;100515.88;;;23.86;71.38
61537;BME280;48695;53.480;-6.300;2022-09-12T10:28:41;100519.88;;;23.92;71.06
61537;BME280;48695;53.480;-6.300;2022-09-12T10:31:09;100519.63;;;23.95;71.12
61537;BME280;48695;53.480;-6.300;2022-09-12T10:33:45;100521.19;;;23.97;71.15
61537;BME280;48695;53.480;-6.300;2022-09-12T10:36:17;100521.97;;;23.88;70.65
61537;BME280;48695;53.480;-6.300;2022-09-12T10:38:57;100521.59;;;23.93;71.95
61537;BME280;48695;53.480;-6.300;2022-09-12T10:41:23;100517.25;;;23.80;71.25
61537;BME280;48695;53.480;-6.300;2022-09-12T10:43:49;100481.00;;;23.55;70.47
61537;BME280;48695;53.480;-6.300;2022-09-12T10:51:28;100533.84;;;23.84;72.22
61537;BME280;48695;53.480;-6.300;2022-09-12T10:53:56;100535.31;;;23.77;69.43
61537;BME280;48695;53.480;-6.300;2022-09-12T10:56:27;100535.06;;;23.80;71.21
61537;BME280;48695;53.480;-6.300;2022-09-12T11:01:42;100529.25;;;23.75;70.70
61537;BME280;48695;53.480;-6.300;2022-09-12T11:06:53;100537.59;;;23.81;71.45
61537;BME280;48695;53.480;-6.300;2022-09-12T11:10:24;100522.72;;;23.79;71.69
61537;BME280;48695;53.480;-6.300;2022-09-12T11:12:39;100535.69;;;23.84;71.61
61537;BME280;48695;53.480;-6.300;2022-09-12T11:15:22;100531.06;;;23.74;71.57
61537;BME280;48695;53.480;-6.300;2022-09-12T11:17:51;100536.53;;;23.73;71.51
61537;BME280;48695;53.480;-6.300;2022-09-12T11:20:42;100532.63;;;23.77;72.38
61537;BME280;48695;53.480;-6.300;2022-09-12T11:34:49;100566.69;;;23.62;71.17
61537;BME280;48695;53.480;-6.300;2022-09-12T11:42:53;100567.53;;;23.40;70.74
61537;BME280;48695;53.480;-6.300;2022-09-12T11:45:28;100557.34;;;23.34;71.27
61537;BME280;48695;53.480;-6.300;2022-09-12T11:48:02;100559.03;;;23.24;72.71
61537;BME280;48695;53.480;-6.300;2022-09-12T11:50:30;100552.84;;;23.12;72.00
61537;BME280;48695;53.480;-6.300;2022-09-12T11:53:20;100555.63;;;23.11;71.38
61537;BME280;48695;53.480;-6.300;2022-09-12T11:55:55;100562.75;;;22.99;72.27
61537;BME280;48695;53.480;-6.300;2022-09-12T11:58:26;100548.38;;;22.77;71.47
61537;BME280;48695;53.480;-6.300;2022-09-12T12:00:57;100564.09;;;22.80;73.41
61537;BME280;48695;53.480;-6.300;2022-09-12T12:03:29;100563.75;;;22.74;73.84
61537;BME280;48695;53.480;-6.300;2022-09-12T12:06:00;100567.59;;;22.70;72.51
61537;BME280;48695;53.480;-6.300;2022-09-12T12:08:29;100549.41;;;22.52;72.16
61537;BME280;48695;53.480;-6.300;2022-09-12T12:11:00;100560.53;;;22.58;73.12
61537;BME280;48695;53.480;-6.300;2022-09-12T12:13:37;100555.19;;;22.46;73.92
61537;BME280;48695;53.480;-6.300;2022-09-12T12:18:39;100550.66;;;22.36;74.97
61537;BME280;48695;53.480;-6.300;2022-09-12T12:21:39;100555.00;;;22.37;74.54
61537;BME280;48695;53.480;-6.300;2022-09-12T12:34:43;100568.78;;;22.31;75.19
61537;BME280;48695;53.480;-6.300;2022-09-12T12:40:09;100577.59;;;22.31;74.43
61537;BME280;48695;53.480;-6.300;2022-09-12T12:42:55;100580.47;;;22.28;72.83
61537;BME280;48695;53.480;-6.300;2022-09-12T12:47:49;100592.59;;;22.32;74.69
61537;BME280;48695;53.480;-6.300;2022-09-12T12:55:38;100573.00;;;22.33;75.62
61537;BME280;48695;53.480;-6.300;2022-09-12T13:03:30;100587.16;;;22.58;75.29
61537;BME280;48695;53.480;-6.300;2022-09-12T13:06:00;100598.09;;;22.66;73.64
61537;BME280;48695;53.480;-6.300;2022-09-12T13:08:32;100597.72;;;22.70;73.95
61537;BME280;48695;53.480;-6.300;2022-09-12T13:11:02;100596.38;;;22.65;73.83
61537;BME280;48695;53.480;-6.300;2022-09-12T13:13:48;100599.78;;;22.67;74.43
61537;BME280;48695;53.480;-6.300;2022-09-12T13:16:37;100599.31;;;22.73;74.06
61537;BME280;48695;53.480;-6.300;2022-09-12T13:19:06;100600.38;;;22.70;74.43
61537;BME280;48695;53.480;-6.300;2022-09-12T13:21:34;100600.28;;;22.72;74.69
61537;BME280;48695;53.480;-6.300;2022-09-12T13:24:00;100600.31;;;22.83;74.17
61537;BME280;48695;53.480;-6.300;2022-09-12T13:26:27;100607.59;;;22.81;73.56
61537;BME280;48695;53.480;-6.300;2022-09-12T13:29:21;100615.63;;;22.92;73.53
61537;BME280;48695;53.480;-6.300;2022-09-12T13:31:55;100600.31;;;22.83;73.39
61537;BME280;48695;53.480;-6.300;2022-09-12T13:34:28;100613.50;;;22.85;72.27
61537;BME280;48695;53.480;-6.300;2022-09-12T13:47:55;100599.78;;;22.67;74.20
61537;BME280;48695;53.480;-6.300;2022-09-12T13:50:23;100611.66;;;22.74;73.36
61537;BME280;48695;53.480;-6.300;2022-09-12T13:52:53;100610.47;;;22.78;73.12
61537;BME280;48695;53.480;-6.300;2022-09-12T13:55:46;100612.44;;;22.87;74.38
61537;BME280;48695;53.480;-6.300;2022-09-12T13:58:52;100623.38;;;22.95;74.37
61537;BME280;48695;53.480;-6.300;2022-09-12T14:01:19;100612.00;;;22.93;74.00
61537;BME280;48695;53.480;-6.300;2022-09-12T14:06:35;100617.13;;;23.08;73.34
61537;BME280;48695;53.480;-6.300;2022-09-12T14:09:01;100621.50;;;23.09;72.58
61537;BME280;48695;53.480;-6.300;2022-09-12T14:11:37;100579.88;;;22.84;72.67
61537;BME280;48695;53.480;-6.300;2022-09-12T14:14:05;100631.66;;;23.15;70.89
61537;BME280;48695;53.480;-6.300;2022-09-12T14:16:41;100626.81;;;23.09;72.05
61537;BME280;48695;53.480;-6.300;2022-09-12T14:19:09;100637.47;;;23.09;70.13
61537;BME280;48695;53.480;-6.300;2022-09-12T14:21:36;100632.84;;;22.99;71.95
61537;BME280;48695;53.480;-6.300;2022-09-12T14:24:04;100634.16;;;22.94;71.76
61537;BME280;48695;53.480;-6.300;2022-09-12T14:26:38;100624.28;;;22.83;71.08
61537;BME280;48695;53.480;-6.300;2022-09-12T14:29:06;100633.19;;;22.71;71.44
61537;BME280;48695;53.480;-6.300;2022-09-12T14:31:35;100635.34;;;22.66;72.95
61537;BME280;48695;53.480;-6.300;2022-09-12T14:34:27;100630.47;;;22.60;71.62
61537;BME280;48695;53.480;-6.300;2022-09-12T14:36:54;100642.25;;;22.44;72.82
61537;BME280;48695;53.480;-6.300;2022-09-12T14:44:28;100646.69;;;22.20;72.66
61537;BME280;48695;53.480;-6.300;2022-09-12T14:47:11;100629.66;;;22.10;72.38
61537;BME280;48695;53.480;-6.300;2022-09-12T14:49:37;100641.50;;;22.06;73.56
61537;BME280;48695;53.480;-6.300;2022-09-12T14:52:21;100641.69;;;22.02;70.98
61537;BME280;48695;53.480;-6.300;2022-09-12T14:57:30;100649.19;;;21.85;74.08
61537;BME280;48695;53.480;-6.300;2022-09-12T15:02:36;100646.19;;;21.64;72.53
61537;BME280;48695;53.480;-6.300;2022-09-12T15:10:03;100650.88;;;21.47;73.83
61537;BME280;48695;53.480;-6.300;2022-09-12T15:12:28;100646.19;;;21.38;72.52
61537;BME280;48695;53.480;-6.300;2022-09-12T15:14:59;100641.50;;;21.29;72.88
61537;BME280;48695;53.480;-6.300;2022-09-12T15:17:28;100657.63;;;21.26;72.26
61537;BME280;48695;53.480;-6.300;2022-09-12T15:19:53;100652.53;;;21.23;73.96
61537;BME280;48695;53.480;-6.300;2022-09-12T15:22:21;100656.13;;;21.22;72.32
61537;BME280;48695;53.480;-6.300;2022-09-12T15:24:48;100651.25;;;21.16;74.88
61537;BME280;48695;53.480;-6.300;2022-09-12T15:27:13;100654.03;;;21.14;73.51
61537;BME280;48695;53.480;-6.300;2022-09-12T15:29:39;100651.44;;;21.13;73.86
61537;BME280;48695;53.480;-6.300;2022-09-12T15:32:05;100648.06;;;21.11;75.66
61537;BME280;48695;53.480;-6.300;2022-09-12T15:34:31;100650.72;;;21.11;75.72
61537;BME280;48695;53.480;-6.300;2022-09-12T15:36:57;100653.38;;;21.11;75.20
61537;BME280;48695;53.480;-6.300;2022-09-12T15:39:22;100646.13;;;21.13;75.41
61537;BME280;48695;53.480;-6.300;2022-09-12T15:41:48;100646.97;;;21.13;74.03